createdAt,value
2022-12-24T00:01:21.756Z,8.38
2022-12-24T00:03:49.295Z,8.33
2022-12-24T00:06:20.077Z,8.33
2022-12-24T00:08:48.145Z,8.33
2022-12-24T00:11:15.463Z,8.33
2022-12-24T00:13:43.071Z,8.38
2022-12-24T00:16:10.663Z,8.35
2022-12-24T00:18:43.532Z,8.48
2022-12-24T00:21:14.831Z,8.48
2022-12-24T00:23:42.251Z,8.42
2022-12-24T00:26:09.631Z,8.41
2022-12-24T00:28:37.100Z,8.35
2022-12-24T00:31:09.543Z,8.33
2022-12-24T00:33:41.286Z,8.20
2022-12-24T00:36:10.378Z,8.24
2022-12-24T00:38:38.863Z,8.17
2022-12-24T00:41:24.587Z,8.15
2022-12-24T00:43:59.728Z,8.25
2022-12-24T00:46:29.127Z,8.16
2022-12-24T00:48:57.141Z,8.23
2022-12-24T00:51:24.709Z,8.17
2022-12-24T00:53:52.939Z,8.23
2022-12-24T00:56:21.365Z,8.20
2022-12-24T00:58:48.923Z,8.20
2022-12-24T01:01:16.953Z,8.23
2022-12-24T01:03:44.958Z,8.27
2022-12-24T01:06:15.931Z,8.30
2022-12-24T01:08:43.344Z,8.33
2022-12-24T01:11:11.890Z,8.29
2022-12-24T01:13:39.456Z,8.36
2022-12-24T01:16:25.488Z,8.35
2022-12-24T01:18:53.529Z,8.34
2022-12-24T01:21:21.000Z,8.34
2022-12-24T01:23:49.292Z,8.33
2022-12-24T01:26:16.849Z,8.40
2022-12-24T01:28:44.308Z,8.42
2022-12-24T01:31:17.885Z,8.34
2022-12-24T01:33:46.976Z,8.35
2022-12-24T01:36:14.541Z,8.37
2022-12-24T01:38:42.363Z,8.39
2022-12-24T01:41:35.139Z,8.29
2022-12-24T01:44:31.255Z,8.30
2022-12-24T01:47:08.525Z,8.35
2022-12-24T01:49:38.863Z,8.29
2022-12-24T01:52:21.518Z,8.42
2022-12-24T01:54:58.467Z,8.38
2022-12-24T01:57:30.475Z,8.28
2022-12-24T02:00:02.241Z,8.30
2022-12-24T02:02:33.666Z,8.22
2022-12-24T02:05:08.413Z,8.25
2022-12-24T02:07:36.442Z,8.14
2022-12-24T02:10:05.355Z,8.15
2022-12-24T02:12:35.610Z,8.17
2022-12-24T02:15:04.608Z,8.11
2022-12-24T02:17:40.131Z,8.11
2022-12-24T02:20:19.568Z,8.15
2022-12-24T02:23:08.603Z,8.16
2022-12-24T02:25:49.318Z,8.16
2022-12-24T02:28:22.824Z,8.08
2022-12-24T02:31:04.265Z,7.82
2022-12-24T02:33:34.807Z,7.78
2022-12-24T02:36:11.734Z,7.87
2022-12-24T02:38:57.913Z,7.88
2022-12-24T02:41:58.278Z,7.90
2022-12-24T02:44:28.733Z,7.84
2022-12-24T02:46:59.441Z,7.84
2022-12-24T02:49:26.834Z,7.74
2022-12-24T02:51:54.431Z,7.72
2022-12-24T02:54:22.101Z,7.55
2022-12-24T02:57:03.117Z,7.72
2022-12-24T02:59:52.585Z,7.73
2022-12-24T03:02:20.027Z,7.72
2022-12-24T03:04:50.932Z,7.75
2022-12-24T03:07:29.961Z,7.69
2022-12-24T03:10:27.054Z,7.67
2022-12-24T03:12:58.810Z,7.46
2022-12-24T03:15:27.237Z,7.55
2022-12-24T03:17:58.700Z,7.53
2022-12-24T03:20:33.855Z,7.57
2022-12-24T03:23:03.035Z,7.57
2022-12-24T03:25:33.067Z,7.65
2022-12-24T03:28:05.008Z,7.65
2022-12-24T03:30:33.061Z,7.68
2022-12-24T03:33:00.924Z,7.63
2022-12-24T03:35:28.349Z,7.67
2022-12-24T03:37:56.757Z,7.60
2022-12-24T03:40:24.190Z,7.66
2022-12-24T03:42:51.898Z,7.60
2022-12-24T03:45:19.448Z,7.69
2022-12-24T03:47:46.907Z,7.64
2022-12-24T03:50:14.354Z,7.60
2022-12-24T03:52:41.872Z,7.69
2022-12-24T03:55:09.636Z,7.65
2022-12-24T03:57:37.149Z,7.63
2022-12-24T04:00:06.737Z,7.68
2022-12-24T04:02:39.731Z,7.72
2022-12-24T04:05:08.550Z,7.80
2022-12-24T04:07:35.935Z,7.69
2022-12-24T04:10:03.588Z,7.73
2022-12-24T04:12:31.001Z,7.89
2022-12-24T04:14:58.397Z,7.87
2022-12-24T04:17:25.797Z,7.78
2022-12-24T04:19:53.472Z,7.67
2022-12-24T04:22:20.955Z,7.58
2022-12-24T04:24:48.452Z,7.63
2022-12-24T04:27:16.273Z,7.48
2022-12-24T04:29:43.660Z,7.52
2022-12-24T04:32:11.219Z,7.58
2022-12-24T04:34:38.672Z,7.51
2022-12-24T04:37:06.016Z,7.46
2022-12-24T04:39:33.370Z,7.45
2022-12-24T04:42:00.724Z,7.39
2022-12-24T04:44:28.068Z,7.40
2022-12-24T04:46:55.456Z,7.37
2022-12-24T04:49:22.743Z,7.35
2022-12-24T04:51:50.122Z,7.36
2022-12-24T04:54:17.447Z,7.34
2022-12-24T04:56:44.752Z,7.25
2022-12-24T04:59:12.063Z,7.26
2022-12-24T05:01:39.552Z,7.30
2022-12-24T05:04:07.024Z,7.23
2022-12-24T05:06:34.960Z,7.10
2022-12-24T05:09:02.429Z,7.09
2022-12-24T05:11:30.466Z,7.13
2022-12-24T05:13:57.913Z,7.16
2022-12-24T05:16:25.470Z,7.10
2022-12-24T05:18:53.079Z,7.03
2022-12-24T05:21:24.212Z,7.01
2022-12-24T05:24:10.838Z,6.95
2022-12-24T05:26:54.751Z,7.02
2022-12-24T05:29:22.151Z,7.09
2022-12-24T05:31:50.324Z,7.18
2022-12-24T05:34:17.945Z,7.08
2022-12-24T05:36:45.803Z,7.08
2022-12-24T05:39:17.878Z,7.17
2022-12-24T05:41:46.095Z,7.20
2022-12-24T05:44:14.880Z,7.17
2022-12-24T05:46:42.876Z,7.12
2022-12-24T05:49:10.433Z,7.13
2022-12-24T05:51:37.894Z,7.16
2022-12-24T05:54:06.053Z,7.24
2022-12-24T05:56:33.895Z,7.27
2022-12-24T05:59:01.490Z,7.23
2022-12-24T06:01:29.516Z,7.26
2022-12-24T06:03:57.805Z,7.25
2022-12-24T06:06:27.525Z,7.28
2022-12-24T06:08:55.588Z,7.27
2022-12-24T06:11:25.803Z,7.18
2022-12-24T06:13:54.284Z,7.11
2022-12-24T06:16:23.486Z,7.09
2022-12-24T06:18:51.315Z,7.08
2022-12-24T06:21:19.569Z,6.99
2022-12-24T06:23:47.621Z,7.00
2022-12-24T06:26:19.247Z,6.87
2022-12-24T06:28:47.118Z,7.00
2022-12-24T06:31:17.203Z,7.07
2022-12-24T06:33:44.981Z,6.98
2022-12-24T06:36:17.816Z,7.01
2022-12-24T06:38:49.155Z,6.99
2022-12-24T06:41:17.482Z,6.81
2022-12-24T06:43:49.609Z,6.80
2022-12-24T06:46:18.439Z,6.68
2022-12-24T06:48:46.378Z,6.66
2022-12-24T06:51:15.988Z,6.72
2022-12-24T06:53:43.427Z,6.83
2022-12-24T06:56:13.447Z,6.87
2022-12-24T06:58:41.599Z,6.87
2022-12-24T07:01:12.182Z,6.80
2022-12-24T07:03:39.851Z,6.78
2022-12-24T07:06:09.604Z,6.75
2022-12-24T07:08:37.026Z,6.92
2022-12-24T07:11:04.619Z,6.71
2022-12-24T07:13:34.376Z,6.89
2022-12-24T07:16:03.914Z,6.93
2022-12-24T07:18:31.951Z,6.80
2022-12-24T07:20:59.435Z,6.96
2022-12-24T07:23:27.087Z,6.86
2022-12-24T07:25:54.417Z,6.95
2022-12-24T07:28:27.430Z,7.03
2022-12-24T07:30:57.065Z,7.10
2022-12-24T07:33:25.768Z,7.13
2022-12-24T07:36:01.854Z,7.05
2022-12-24T07:38:30.443Z,7.08
2022-12-24T07:40:58.402Z,7.01
2022-12-24T07:43:27.410Z,7.05
2022-12-24T07:45:58.785Z,7.03
2022-12-24T07:48:27.445Z,6.91
2022-12-24T07:50:56.226Z,6.98
2022-12-24T07:53:23.811Z,7.12
2022-12-24T07:55:51.357Z,7.18
2022-12-24T07:58:18.884Z,7.21
2022-12-24T08:00:46.325Z,7.22
2022-12-24T08:03:21.194Z,7.35
2022-12-24T08:05:49.347Z,7.24
2022-12-24T08:08:16.699Z,7.26
2022-12-24T08:10:46.037Z,7.31
2022-12-24T08:13:14.217Z,7.24
2022-12-24T08:15:42.057Z,7.28
2022-12-24T08:18:10.556Z,7.20
2022-12-24T08:20:41.790Z,7.16
2022-12-24T08:23:09.708Z,7.27
2022-12-24T08:25:37.578Z,7.30
2022-12-24T08:28:05.895Z,7.15
2022-12-24T08:30:33.721Z,7.13
2022-12-24T08:33:01.207Z,7.24
2022-12-24T08:35:29.082Z,7.24
2022-12-24T08:37:56.472Z,7.28
2022-12-24T08:40:23.870Z,7.36
2022-12-24T08:42:51.391Z,7.34
2022-12-24T08:45:18.912Z,7.31
2022-12-24T08:47:46.393Z,7.37
2022-12-24T08:50:13.983Z,7.28
2022-12-24T08:52:41.337Z,7.42
2022-12-24T08:55:09.111Z,7.51
2022-12-24T08:57:37.611Z,7.58
2022-12-24T09:00:06.185Z,7.67
2022-12-24T09:02:33.570Z,7.62
2022-12-24T09:05:01.178Z,7.58
2022-12-24T09:07:28.620Z,7.61
2022-12-24T09:09:55.999Z,7.57
2022-12-24T09:12:23.329Z,7.54
2022-12-24T09:14:51.775Z,7.62
2022-12-24T09:17:19.076Z,7.62
2022-12-24T09:19:46.660Z,7.68
2022-12-24T09:22:14.741Z,7.78
2022-12-24T09:24:42.251Z,7.82
2022-12-24T09:27:09.599Z,7.86
2022-12-24T09:29:37.031Z,8.12
2022-12-24T09:32:04.860Z,7.94
2022-12-24T09:34:32.389Z,7.83
2022-12-24T09:37:02.376Z,7.87
2022-12-24T09:39:29.718Z,7.95
2022-12-24T09:42:20.101Z,8.02
2022-12-24T09:44:59.032Z,7.99
2022-12-24T09:47:34.743Z,8.20
2022-12-24T09:50:04.966Z,8.14
2022-12-24T09:52:45.281Z,8.35
2022-12-24T09:55:12.559Z,8.25
2022-12-24T09:57:41.880Z,8.23
2022-12-24T10:00:22.987Z,8.30
2022-12-24T10:02:50.684Z,8.32
2022-12-24T10:05:24.079Z,8.41
2022-12-24T10:08:03.272Z,8.54
2022-12-24T10:10:43.515Z,8.59
2022-12-24T10:13:52.160Z,8.69
2022-12-24T10:16:27.962Z,8.77
2022-12-24T10:19:04.782Z,8.77
2022-12-24T10:21:40.067Z,8.84
2022-12-24T10:24:20.067Z,8.86
2022-12-24T10:26:52.005Z,8.96
2022-12-24T10:29:27.699Z,8.95
2022-12-24T10:31:57.775Z,9.05
2022-12-24T10:34:31.641Z,8.98
2022-12-24T10:36:59.785Z,8.99
2022-12-24T10:39:27.424Z,9.10
2022-12-24T10:41:57.940Z,9.11
2022-12-24T10:44:32.408Z,9.11
2022-12-24T10:46:59.929Z,9.25
2022-12-24T10:50:00.429Z,9.30
2022-12-24T10:52:32.870Z,9.33
2022-12-24T10:55:21.549Z,9.17
2022-12-24T10:58:01.244Z,9.26
2022-12-24T11:00:35.515Z,9.33
2022-12-24T11:03:12.679Z,9.29
2022-12-24T11:05:40.643Z,9.24
2022-12-24T11:08:13.834Z,9.23
2022-12-24T11:10:45.451Z,9.26
2022-12-24T11:13:37.310Z,9.26
2022-12-24T11:16:10.733Z,9.18
2022-12-24T11:18:51.172Z,9.15
2022-12-24T11:21:26.001Z,9.15
2022-12-24T11:23:59.579Z,9.09
2022-12-24T11:26:30.409Z,9.15
2022-12-24T11:29:19.737Z,9.26
2022-12-24T11:31:48.682Z,9.23
2022-12-24T11:34:27.123Z,9.28
2022-12-24T11:37:14.105Z,9.31
2022-12-24T11:39:50.561Z,9.43
2022-12-24T11:42:26.460Z,9.37
2022-12-24T11:44:56.310Z,9.42
2022-12-24T11:47:35.563Z,9.37
2022-12-24T11:50:23.075Z,9.32
2022-12-24T11:53:07.099Z,9.40
2022-12-24T11:55:53.176Z,9.30
2022-12-24T11:58:39.177Z,9.28
2022-12-24T12:01:36.171Z,9.25
2022-12-24T12:04:21.030Z,9.24
2022-12-24T12:07:00.638Z,9.18
2022-12-24T12:09:32.720Z,9.21
2022-12-24T12:12:07.170Z,9.17
2022-12-24T12:14:44.263Z,9.15
2022-12-24T12:17:30.181Z,9.16
2022-12-24T12:20:04.582Z,9.19
2022-12-24T12:22:35.021Z,9.25
2022-12-24T12:25:04.529Z,9.30
2022-12-24T12:27:47.776Z,9.40
2022-12-24T12:30:21.619Z,9.39
2022-12-24T12:33:01.856Z,9.43
2022-12-24T12:35:36.011Z,9.43
2022-12-24T12:38:11.051Z,9.43
2022-12-24T12:40:41.404Z,9.45
2022-12-24T12:43:19.350Z,9.50
2022-12-24T12:46:21.058Z,9.51
2022-12-24T12:49:10.002Z,9.58
2022-12-24T12:51:52.549Z,9.55
2022-12-24T12:54:22.935Z,9.52
2022-12-24T12:56:55.970Z,9.51
2022-12-24T12:59:31.743Z,9.50
2022-12-24T13:02:45.580Z,9.45
2022-12-24T13:05:34.840Z,9.53
2022-12-24T13:08:29.509Z,9.57
2022-12-24T13:11:30.794Z,9.70
2022-12-24T13:14:14.886Z,9.72
2022-12-24T13:17:06.831Z,9.62
2022-12-24T13:19:52.661Z,9.65
2022-12-24T13:22:22.185Z,9.65
2022-12-24T13:24:54.879Z,9.71
2022-12-24T13:27:28.247Z,9.72
2022-12-24T13:30:09.126Z,9.80
2022-12-24T13:32:41.096Z,9.82
2022-12-24T13:35:21.148Z,9.88
2022-12-24T13:37:49.970Z,9.81
2022-12-24T13:40:27.749Z,9.80
2022-12-24T13:43:05.215Z,9.84
2022-12-24T13:45:38.761Z,9.80
2022-12-24T13:48:06.244Z,9.83
2022-12-24T13:50:41.643Z,9.77
2022-12-24T13:53:28.675Z,9.81
2022-12-24T13:55:59.631Z,9.75
2022-12-24T13:58:27.256Z,9.84
2022-12-24T14:00:59.055Z,9.89
2022-12-24T14:03:29.781Z,9.95
2022-12-24T14:06:10.545Z,9.82
2022-12-24T14:08:43.073Z,9.80
2022-12-24T14:11:14.070Z,9.77
2022-12-24T14:13:41.666Z,9.73
2022-12-24T14:16:17.373Z,9.78
2022-12-24T14:18:50.219Z,9.63
2022-12-24T14:21:28.524Z,9.62
2022-12-24T14:24:03.672Z,9.63
2022-12-24T14:26:36.382Z,9.56
2022-12-24T14:32:16.385Z,9.51
2022-12-24T14:34:44.411Z,9.63
2022-12-24T14:37:14.770Z,9.70
2022-12-24T14:39:49.194Z,9.69
2022-12-24T14:42:42.723Z,9.62
2022-12-24T14:45:36.701Z,9.61
2022-12-24T14:48:29.615Z,9.65
2022-12-24T14:51:15.576Z,9.66
2022-12-24T14:54:11.867Z,9.64
2022-12-24T14:56:47.137Z,9.57
2022-12-24T14:59:25.644Z,9.59
2022-12-24T15:01:55.448Z,9.54
2022-12-24T15:04:23.075Z,9.53
2022-12-24T15:06:53.855Z,9.50
2022-12-24T15:09:31.036Z,9.49
2022-12-24T15:12:00.649Z,9.46
2022-12-24T15:14:30.944Z,9.43
2022-12-24T15:17:08.440Z,9.43
2022-12-24T15:19:44.895Z,9.44
2022-12-24T15:22:25.965Z,9.42
2022-12-24T15:24:54.029Z,9.50
2022-12-24T15:27:26.827Z,9.46
2022-12-24T15:29:57.649Z,9.43
2022-12-24T15:32:25.306Z,9.42
2022-12-24T15:34:55.528Z,9.33
2022-12-24T15:37:27.268Z,9.30
2022-12-24T15:39:55.793Z,9.26
2022-12-24T15:42:24.729Z,9.21
2022-12-24T15:45:03.446Z,9.14
2022-12-24T15:47:38.199Z,9.07
2022-12-24T15:50:16.753Z,9.06
2022-12-24T15:52:44.914Z,9.02
2022-12-24T15:55:46.156Z,9.05
2022-12-24T15:58:18.529Z,9.08
2022-12-24T16:01:05.937Z,9.07
2022-12-24T16:03:33.836Z,9.07
2022-12-24T16:06:05.235Z,9.13
2022-12-24T16:08:34.628Z,9.12
2022-12-24T16:11:11.022Z,9.04
2022-12-24T16:14:03.293Z,9.13
2022-12-24T16:16:42.052Z,9.14
2022-12-24T16:19:28.087Z,9.14
2022-12-24T16:21:58.647Z,9.17
2022-12-24T16:24:28.481Z,9.04
2022-12-24T16:26:57.798Z,9.06
2022-12-24T16:29:27.334Z,9.02
2022-12-24T16:31:58.191Z,9.00
2022-12-24T16:34:52.443Z,9.05
2022-12-24T16:37:21.895Z,8.97
2022-12-24T16:39:49.908Z,9.06
2022-12-24T16:42:38.319Z,8.93
2022-12-24T16:45:06.486Z,8.91
2022-12-24T16:47:42.006Z,8.83
2022-12-24T16:50:18.931Z,8.73
2022-12-24T16:52:48.983Z,8.61
2022-12-24T16:55:20.899Z,8.56
2022-12-24T16:58:02.992Z,8.67
2022-12-24T17:00:30.946Z,8.64
2022-12-24T17:03:03.822Z,8.43
2022-12-24T17:05:31.516Z,8.51
2022-12-24T17:08:04.998Z,8.50
2022-12-24T17:10:38.328Z,8.39
2022-12-24T17:13:06.015Z,8.39
2022-12-24T17:15:36.776Z,8.46
2022-12-24T17:18:04.441Z,8.35
2022-12-24T17:20:31.789Z,8.33
2022-12-24T17:22:59.342Z,8.37
2022-12-24T17:25:26.755Z,8.31
2022-12-24T17:27:54.201Z,8.32
2022-12-24T17:30:21.610Z,8.33
2022-12-24T17:32:48.909Z,8.33
2022-12-24T17:35:17.496Z,8.33
2022-12-24T17:37:44.892Z,8.30
2022-12-24T17:40:12.446Z,8.25
2022-12-24T17:42:39.813Z,8.27
2022-12-24T17:45:07.587Z,8.20
2022-12-24T17:47:34.940Z,8.13
2022-12-24T17:50:02.348Z,8.25
2022-12-24T17:52:29.774Z,8.15
2022-12-24T17:54:57.264Z,8.25
2022-12-24T17:57:24.649Z,8.13
2022-12-24T17:59:52.150Z,8.09
2022-12-24T18:02:19.802Z,8.16
2022-12-24T18:04:47.259Z,8.17
2022-12-24T18:07:14.798Z,8.14
2022-12-24T18:09:44.780Z,8.12
2022-12-24T18:12:13.485Z,8.25
2022-12-24T18:14:40.923Z,8.24
2022-12-24T18:17:08.366Z,8.13
2022-12-24T18:19:36.098Z,7.98
2022-12-24T18:22:03.698Z,7.92
2022-12-24T18:24:31.290Z,7.83
2022-12-24T18:26:59.220Z,7.82
2022-12-24T18:29:26.537Z,7.72
2022-12-24T18:31:53.950Z,7.69
2022-12-24T18:34:22.289Z,7.65
2022-12-24T18:37:06.169Z,7.66
2022-12-24T18:39:33.653Z,7.80
2022-12-24T18:42:19.523Z,7.74
2022-12-24T18:44:47.038Z,7.67
2022-12-24T18:47:14.561Z,7.64
2022-12-24T18:49:41.983Z,7.58
2022-12-24T18:52:10.927Z,7.52
2022-12-24T18:54:39.925Z,7.52
2022-12-24T18:57:07.589Z,7.43
2022-12-24T18:59:36.455Z,7.42
2022-12-24T19:02:04.266Z,7.44
2022-12-24T19:04:31.742Z,7.40
2022-12-24T19:07:00.575Z,7.42
2022-12-24T19:09:27.985Z,7.40
2022-12-24T19:11:55.457Z,7.39
2022-12-24T19:14:22.908Z,7.46
2022-12-24T19:16:51.303Z,7.54
2022-12-24T19:19:23.829Z,7.42
2022-12-24T19:21:51.793Z,7.27
2022-12-24T19:24:20.349Z,7.22
2022-12-24T19:26:48.747Z,7.17
2022-12-24T19:29:16.150Z,7.17
2022-12-24T19:31:47.301Z,7.09
2022-12-24T19:34:14.925Z,7.15
2022-12-24T19:36:43.139Z,7.28
2022-12-24T19:39:10.979Z,7.32
2022-12-24T19:41:38.809Z,7.26
2022-12-24T19:44:06.325Z,7.16
2022-12-24T19:46:36.287Z,7.09
2022-12-24T19:49:06.373Z,6.91
2022-12-24T19:51:35.081Z,7.01
2022-12-24T19:54:04.064Z,6.97
2022-12-24T19:56:32.956Z,7.06
2022-12-24T19:59:01.639Z,6.84
2022-12-24T20:01:30.904Z,6.86
2022-12-24T20:03:59.781Z,6.81
2022-12-24T20:06:32.731Z,6.82
2022-12-24T20:09:08.164Z,6.85
2022-12-24T20:11:35.900Z,6.97
2022-12-24T20:14:05.127Z,6.97
2022-12-24T20:16:33.204Z,7.09
2022-12-24T20:19:03.598Z,7.11
2022-12-24T20:21:32.100Z,6.92
2022-12-24T20:23:59.545Z,6.80
2022-12-24T20:26:28.824Z,6.83
2022-12-24T20:28:56.445Z,6.83
2022-12-24T20:31:26.803Z,6.74
2022-12-24T20:33:54.303Z,6.72
2022-12-24T20:36:23.093Z,6.83
2022-12-24T20:38:50.502Z,6.93
2022-12-24T20:41:20.413Z,6.83
2022-12-24T20:43:49.204Z,6.75
2022-12-24T20:46:18.980Z,6.80
2022-12-24T20:48:46.944Z,6.79
2022-12-24T20:51:24.309Z,6.91
2022-12-24T20:53:54.530Z,7.19
2022-12-24T20:56:22.888Z,7.16
2022-12-24T20:58:50.603Z,7.04
2022-12-24T21:01:26.456Z,7.04
2022-12-24T21:03:55.728Z,7.07
2022-12-24T21:06:24.856Z,7.07
2022-12-24T21:08:54.104Z,7.02
2022-12-24T21:11:41.154Z,6.96
2022-12-24T21:14:10.042Z,6.92
2022-12-24T21:16:39.202Z,6.95
2022-12-24T21:19:08.987Z,6.59
2022-12-24T21:21:37.262Z,6.54
2022-12-24T21:24:06.130Z,6.47
2022-12-24T21:26:33.899Z,6.54
2022-12-24T21:29:04.764Z,6.70
2022-12-24T21:31:33.050Z,6.59
2022-12-24T21:34:00.565Z,6.55
2022-12-24T21:36:28.030Z,6.57
2022-12-24T21:38:55.408Z,6.55
2022-12-24T21:41:23.700Z,6.64
2022-12-24T21:43:51.457Z,6.63
2022-12-24T21:46:23.273Z,6.42
2022-12-24T21:49:10.148Z,6.41
2022-12-24T21:51:38.840Z,6.36
2022-12-24T21:54:25.967Z,6.30
2022-12-24T21:57:13.823Z,6.30
2022-12-24T21:59:41.418Z,6.29
2022-12-24T22:02:16.328Z,6.31
2022-12-24T22:04:44.712Z,6.29
2022-12-24T22:07:45.440Z,6.34
2022-12-24T22:10:32.449Z,6.35
2022-12-24T22:13:12.603Z,6.27
2022-12-24T22:15:48.631Z,6.24
2022-12-24T22:18:18.328Z,6.31
2022-12-24T22:20:46.983Z,6.28
2022-12-24T22:23:17.701Z,6.10
2022-12-24T22:25:45.399Z,6.12
2022-12-24T22:28:12.803Z,6.09
2022-12-24T22:30:41.808Z,6.03
2022-12-24T22:33:11.041Z,6.15
2022-12-24T22:35:39.553Z,6.16
2022-12-24T22:38:09.527Z,6.29
2022-12-24T22:40:39.938Z,6.22
2022-12-24T22:43:07.525Z,6.15
2022-12-24T22:45:34.983Z,6.25
2022-12-24T22:48:02.850Z,6.14
2022-12-24T22:50:30.304Z,6.21
2022-12-24T22:52:57.882Z,6.22
2022-12-24T22:55:25.381Z,6.22
2022-12-24T22:57:52.833Z,6.16
2022-12-24T23:00:43.348Z,6.22
2022-12-24T23:03:12.115Z,6.16
2022-12-24T23:05:39.733Z,6.09
2022-12-24T23:08:08.163Z,6.10
2022-12-24T23:10:36.107Z,6.35
2022-12-24T23:13:39.836Z,6.24
2022-12-24T23:16:07.762Z,6.22
2022-12-24T23:18:35.298Z,6.36
2022-12-24T23:21:07.023Z,6.42
2022-12-24T23:23:37.178Z,6.42
2022-12-24T23:26:11.046Z,6.21
2022-12-24T23:28:38.818Z,6.25
2022-12-24T23:31:07.249Z,6.24
2022-12-24T23:33:35.368Z,6.26
2022-12-24T23:36:03.507Z,6.32
2022-12-24T23:38:31.200Z,6.32
2022-12-24T23:41:00.182Z,6.37
2022-12-24T23:43:28.638Z,6.36
2022-12-24T23:45:56.256Z,6.33
2022-12-24T23:48:25.538Z,6.36
2022-12-24T23:50:53.095Z,6.38
2022-12-24T23:53:20.613Z,6.20
2022-12-24T23:55:48.579Z,6.21
2022-12-24T23:58:16.068Z,6.26
